Trafford, Pennsylvania
Current Conditions -  °F | °C
As of 7:53 PM on Thursday 18 Dec 2014 (Local Time) from KAGC Reporting Station
Overcast Overcast  
Wind Chill: 20°   Ceiling: 1900
Heat Index: 28°   Visibility: 10mi
Dew Point: 19°   Wind: 8mph
Humidity: 69%   Direction: 280°W
Pressure: 30.14"   Gusts: NA
Location:  40.39°N, 79.76°W
Report Text: KAGC 190053Z 28007KT 10SM OVC019 M02/M07 A3014 RMK AO2 SLP227 T10221072
Loading
Personal Weather Stations






























Interactive Weather Map New forecast layout! Learn more

10-Day Weather Forecast

Advertisements
Track Severe Weather on mobile